Time;durP1;ratioP1;P1;durP2;ratioP2;P2;SDS_P1;SDS_P2;PMS_P1;PMS_P2;Temp;Humidity;BMP_temperature;BMP_pressure;BME280_temperature;BME280_humidity;BME280_pressure;Samples;Min_cycle;Max_cycle;Signal;HPM_P1;HPM_P2
2021/09/16 00:01:41;;;;;;;13.93;10.45;;;;;;;13.48;78.35;97818.01;1662188;85;21405;-75
2021/09/16 00:04:07;;;;;;;14.50;10.40;;;;;;;13.44;78.35;97812.38;1661973;85;20987;-74
2021/09/16 00:06:34;;;;;;;16.77;12.55;;;;;;;13.38;78.64;97814.00;1687761;85;20999;-74
2021/09/16 00:09:00;;;;;;;15.35;11.30;;;;;;;13.31;79.25;97823.59;1694407;83;21007;-74
2021/09/16 00:11:27;;;;;;;14.40;11.38;;;;;;;13.30;78.84;97814.34;1696741;83;21451;-75
2021/09/16 00:13:53;;;;;;;15.30;10.60;;;;;;;13.26;79.00;97812.28;1688157;83;21019;-74
2021/09/16 00:16:19;;;;;;;13.65;11.00;;;;;;;13.22;79.08;97812.01;1694769;85;21026;-75
2021/09/16 00:18:46;;;;;;;15.80;10.80;;;;;;;13.19;79.62;97810.34;1694279;85;20991;-75
2021/09/16 00:21:13;;;;;;;15.63;11.55;;;;;;;13.20;79.93;97811.19;1694631;85;21441;-74
2021/09/16 00:23:39;;;;;;;14.45;10.50;;;;;;;13.17;80.17;97810.02;1694512;85;21034;-75
2021/09/16 01:21:15;;;;;;;11.95;9.80;;;;;;;13.12;82.04;97798.70;1757230;80;22711;-77
2021/09/16 01:23:42;;;;;;;15.72;10.40;;;;;;;12.99;82.67;97804.54;1731226;83;20991;-79
2021/09/16 01:26:09;;;;;;;11.10;9.38;;;;;;;12.97;82.86;97802.42;1731294;83;21036;-78
2021/09/16 01:28:35;;;;;;;12.80;9.33;;;;;;;12.97;82.95;97794.89;1731319;83;21084;-78
2021/09/16 01:31:01;;;;;;;11.45;9.08;;;;;;;12.96;82.73;97800.70;1728803;83;21028;-78
2021/09/16 01:33:28;;;;;;;11.30;9.55;;;;;;;12.97;82.85;97795.77;1697930;83;21041;-78
2021/09/16 01:35:54;;;;;;;10.55;9.38;;;;;;;12.98;83.05;97796.16;1723512;83;20988;-78
2021/09/16 01:38:21;;;;;;;10.72;8.70;;;;;;;13.01;83.04;97801.36;1732048;80;21020;-78
2021/09/16 01:40:47;;;;;;;11.50;9.13;;;;;;;13.01;82.86;97798.70;1709045;83;21015;-78
2021/09/16 01:43:15;;;;;;;9.73;8.70;;;;;;;13.01;82.81;97803.15;1730473;83;20976;-78
2021/09/16 01:45:42;;;;;;;11.15;9.05;;;;;;;13.03;83.03;97794.17;1734777;81;20945;-79
2021/09/16 01:48:08;;;;;;;11.28;9.03;;;;;;;13.05;83.05;97787.46;1731542;83;21122;-79
2021/09/16 01:50:35;;;;;;;12.50;9.65;;;;;;;13.05;82.79;97786.12;1731610;83;21039;-79
2021/09/16 01:53:01;;;;;;;13.03;9.53;;;;;;;13.04;82.84;97793.23;1731136;83;20988;-78
2021/09/16 01:55:29;;;;;;;11.43;9.28;;;;;;;13.03;82.70;97790.18;1731575;83;21057;-79
2021/09/16 01:57:56;;;;;;;14.45;9.30;;;;;;;12.98;82.64;97785.52;1720081;83;21007;-79
2021/09/16 02:00:22;;;;;;;12.25;9.63;;;;;;;12.94;82.54;97787.91;1729704;83;21552;-79
2021/09/16 02:02:49;;;;;;;12.63;9.85;;;;;;;12.90;82.37;97791.63;1730125;83;20995;-78
2021/09/16 02:05:15;;;;;;;12.45;9.50;;;;;;;12.85;82.15;97788.30;1713143;83;21022;-78
2021/09/16 02:07:43;;;;;;;14.60;9.20;;;;;;;12.84;82.39;97786.58;1724108;83;21005;-79
2021/09/16 02:10:10;;;;;;;12.25;9.48;;;;;;;12.80;81.99;97784.52;1747788;82;21136;-78
2021/09/16 02:12:37;;;;;;;12.07;9.88;;;;;;;12.75;82.00;97785.17;1747800;82;20983;-79
2021/09/16 02:15:05;;;;;;;14.45;9.73;;;;;;;12.70;82.39;97785.35;1747881;82;21098;-79
2021/09/16 02:17:32;;;;;;;13.13;9.98;;;;;;;12.66;81.91;97788.61;1748362;82;21034;-79
2021/09/16 02:19:58;;;;;;;15.18;9.83;;;;;;;12.60;81.98;97779.56;1744552;82;21050;-79
2021/09/16 02:22:24;;;;;;;16.67;10.32;;;;;;;12.52;81.99;97782.54;1737561;82;21054;-79
2021/09/16 02:24:51;;;;;;;12.15;9.60;;;;;;;12.49;82.25;97788.42;1737700;83;21015;-79
2021/09/16 02:27:17;;;;;;;13.18;10.32;;;;;;;12.44;82.61;97785.09;1737860;82;20971;-79
2021/09/16 02:29:44;;;;;;;12.70;9.50;;;;;;;12.40;82.16;97785.69;1737347;82;21453;-79
2021/09/16 02:32:10;;;;;;;15.72;10.50;;;;;;;12.35;82.46;97779.69;1725333;82;21028;-79
2021/09/16 02:34:36;;;;;;;13.88;9.70;;;;;;;12.31;82.44;97786.93;1720152;83;20973;-78
2021/09/16 02:37:03;;;;;;;13.20;10.48;;;;;;;12.27;82.58;97790.18;1694840;85;21528;-79
2021/09/16 02:39:30;;;;;;;12.40;10.08;;;;;;;12.25;82.43;97792.02;1720119;83;21088;-78
2021/09/16 02:41:57;;;;;;;11.97;9.98;;;;;;;12.21;82.73;97782.43;1720136;83;21033;-78
2021/09/16 02:44:23;;;;;;;15.35;10.45;;;;;;;12.18;82.40;97780.36;1720123;83;21064;-78
2021/09/16 02:46:50;;;;;;;14.07;10.58;;;;;;;12.16;82.82;97787.55;1720149;83;20993;-78
2021/09/16 02:49:17;;;;;;;12.95;10.28;;;;;;;12.14;83.04;97784.46;1719953;83;21009;-79
2021/09/16 02:51:43;;;;;;;13.20;10.43;;;;;;;12.13;82.91;97788.53;1720136;83;21103;-79
2021/09/16 02:54:09;;;;;;;14.75;10.50;;;;;;;12.11;82.93;97777.96;1724602;82;21040;-79
2021/09/16 02:56:36;;;;;;;12.37;10.05;;;;;;;12.09;83.31;97790.42;1735423;82;21064;-79
2021/09/16 02:59:03;;;;;;;13.98;10.38;;;;;;;12.07;83.55;97785.64;1738597;82;20977;-79
2021/09/16 03:01:29;;;;;;;12.53;9.83;;;;;;;12.05;83.10;97778.20;1749965;82;21112;-78
2021/09/16 03:03:56;;;;;;;13.18;10.32;;;;;;;12.00;83.11;97785.46;1749995;82;21441;-79
2021/09/16 03:06:22;;;;;;;14.00;10.70;;;;;;;11.98;83.21;97776.22;1749892;82;21036;-78
2021/09/16 03:08:49;;;;;;;12.75;10.25;;;;;;;11.99;83.10;97775.28;1750035;82;20997;-78
2021/09/16 03:11:16;;;;;;;12.73;9.20;;;;;;;12.01;83.39;97778.73;1749852;82;21453;-78
2021/09/16 03:13:42;;;;;;;14.07;9.38;;;;;;;12.03;83.51;97773.37;1749850;82;21398;-78
2021/09/16 03:16:09;;;;;;;12.40;9.03;;;;;;;12.04;83.57;97772.44;1722591;81;21076;-79
2021/09/16 03:18:35;;;;;;;11.25;9.10;;;;;;;12.06;84.03;97771.09;1721996;82;21000;-78
2021/09/16 03:21:02;;;;;;;13.62;9.05;;;;;;;12.06;83.87;97774.62;1733474;82;21053;-78
2021/09/16 03:23:29;;;;;;;10.53;8.45;;;;;;;12.09;83.96;97768.32;1742517;82;21024;-78
2021/09/16 03:25:55;;;;;;;13.72;9.05;;;;;;;12.09;84.07;97770.98;1750067;82;21538;-78
2021/09/16 03:28:22;;;;;;;11.43;8.28;;;;;;;12.08;84.37;97774.08;1750117;82;21024;-78
2021/09/16 03:30:48;;;;;;;14.05;9.25;;;;;;;12.09;84.35;97779.80;1749768;82;21060;-78
2021/09/16 03:33:14;;;;;;;15.35;9.58;;;;;;;12.10;84.45;97778.89;1749976;82;20945;-78
2021/09/16 03:35:41;;;;;;;11.73;8.48;;;;;;;12.14;84.49;97782.28;1737780;82;21418;-78
2021/09/16 03:38:07;;;;;;;11.33;8.43;;;;;;;12.16;84.41;97780.42;1724464;83;20957;-77
2021/09/16 03:40:34;;;;;;;12.05;8.78;;;;;;;12.19;84.61;97783.41;1738057;82;21018;-78
2021/09/16 03:43:00;;;;;;;14.10;9.25;;;;;;;12.19;84.54;97780.76;1737868;82;21006;-79
2021/09/16 03:45:27;;;;;;;11.88;9.90;;;;;;;12.19;84.54;97785.63;1729817;81;21393;-78
2021/09/16 03:47:54;;;;;;;12.55;9.35;;;;;;;12.14;84.26;97779.62;1736115;82;21028;-78
2021/09/16 03:50:21;;;;;;;17.07;11.50;;;;;;;12.09;84.39;97786.43;1694755;85;21004;-80
2021/09/16 03:52:48;;;;;;;14.00;9.00;;;;;;;12.08;84.39;97786.03;1664567;85;21040;-79
2021/09/16 03:55:20;;;;;;;13.93;9.68;;;;;;;12.06;85.28;97779.05;1689943;85;21020;-79
2021/09/16 03:57:43;;;;;;;13.18;10.78;;;;;;;12.06;84.29;97779.05;1693733;85;21051;-80
2021/09/16 04:00:12;;;;;;;14.23;10.08;;;;;;;12.04;85.10;97778.23;1720111;83;21386;-80
2021/09/16 04:02:39;;;;;;;15.43;10.00;;;;;;;12.01;84.59;97787.19;1720055;82;21063;-77
2021/09/16 04:05:06;;;;;;;13.68;10.23;;;;;;;12.00;84.09;97781.48;1720963;82;21139;-80
2021/09/16 04:07:32;;;;;;;14.70;10.00;;;;;;;11.98;83.61;97781.53;1723222;82;21359;-77
2021/09/16 04:09:59;;;;;;;14.55;10.80;;;;;;;11.95;83.53;97786.95;1729060;82;21040;-80
2021/09/16 04:12:25;;;;;;;17.10;10.80;;;;;;;11.90;83.65;97783.61;1748981;82;21128;-80
2021/09/16 04:14:52;;;;;;;14.85;10.18;;;;;;;11.86;84.06;97780.21;1742578;82;21442;-77
2021/09/16 04:17:18;;;;;;;14.18;11.08;;;;;;;11.85;84.09;97781.14;1749838;82;21032;-77
2021/09/16 04:19:44;;;;;;;17.23;11.05;;;;;;;11.83;84.68;97773.67;1748327;82;21024;-79
2021/09/16 04:22:11;;;;;;;14.05;10.88;;;;;;;11.79;84.06;97777.37;1726365;83;20965;-79
2021/09/16 04:24:37;;;;;;;14.43;10.75;;;;;;;11.77;83.90;97783.66;1726542;83;20984;-79
2021/09/16 04:27:05;;;;;;;15.55;11.20;;;;;;;11.74;84.15;97783.31;1726381;83;21433;-79
2021/09/16 04:29:32;;;;;;;18.40;11.85;;;;;;;11.72;83.98;97787.83;1726488;83;21027;-79
2021/09/16 04:31:58;;;;;;;19.27;12.58;;;;;;;11.70;83.93;97790.98;1726488;83;21495;-79
2021/09/16 04:34:25;;;;;;;17.02;11.95;;;;;;;11.69;83.90;97791.92;1720670;83;20996;-79
2021/09/16 04:36:51;;;;;;;17.45;11.25;;;;;;;11.68;84.39;97793.72;1699070;83;21463;-79
2021/09/16 04:39:18;;;;;;;15.45;11.40;;;;;;;11.68;84.25;97797.70;1697538;84;20992;-80
2021/09/16 04:41:44;;;;;;;16.12;11.25;;;;;;;11.69;84.46;97805.19;1697497;84;21460;-79
2021/09/16 04:44:11;;;;;;;17.85;12.78;;;;;;;11.70;85.86;97812.23;1697730;84;21007;-80
2021/09/16 04:46:37;;;;;;;22.07;12.82;;;;;;;11.72;84.65;97817.88;1705675;83;21016;-79
2021/09/16 04:49:04;;;;;;;20.70;12.50;;;;;;;11.74;87.62;97812.52;1699264;83;21114;-80
2021/09/16 04:51:30;;;;;;;18.37;12.15;;;;;;;11.75;85.21;97811.14;1698050;84;21080;-79
2021/09/16 04:53:57;;;;;;;16.37;11.12;;;;;;;11.79;84.58;97813.69;1697980;84;20988;-80
2021/09/16 04:56:23;;;;;;;14.63;11.53;;;;;;;11.78;85.42;97815.47;1705679;84;21009;-80
2021/09/16 04:58:49;;;;;;;18.60;11.50;;;;;;;11.80;84.84;97814.97;1704645;82;21399;-80
2021/09/16 05:01:17;;;;;;;15.93;10.60;;;;;;;11.84;84.94;97817.89;1721735;82;21035;-79
2021/09/16 05:03:43;;;;;;;15.98;11.60;;;;;;;11.89;84.74;97814.59;1728018;82;21332;-80
2021/09/16 05:06:10;;;;;;;16.60;10.72;;;;;;;11.97;84.34;97813.45;1727700;81;21481;-79
2021/09/16 05:08:36;;;;;;;16.65;10.38;;;;;;;12.05;84.52;97816.72;1704341;83;21004;-80
2021/09/16 05:11:03;;;;;;;13.55;9.70;;;;;;;12.13;84.61;97811.95;1716553;83;21417;-80
2021/09/16 05:13:29;;;;;;;14.75;9.95;;;;;;;12.22;84.68;97815.19;1744580;82;20970;-79
2021/09/16 05:15:56;;;;;;;13.70;9.43;;;;;;;12.32;84.68;97817.00;1718292;83;21028;-79
2021/09/16 05:18:22;;;;;;;14.78;10.05;;;;;;;12.39;85.10;97816.73;1714826;82;20972;-80
2021/09/16 05:20:48;;;;;;;16.32;9.83;;;;;;;12.52;84.57;97814.89;1697594;84;21047;-79
2021/09/16 05:23:15;;;;;;;13.50;8.95;;;;;;;12.64;84.87;97812.20;1698844;83;21484;-79
2021/09/16 05:25:41;;;;;;;12.68;10.28;;;;;;;12.74;84.53;97814.88;1723704;83;21043;-79
2021/09/16 05:28:07;;;;;;;22.75;12.00;;;;;;;12.86;84.34;97812.17;1715461;83;20949;-79
2021/09/16 05:30:34;;;;;;;14.65;10.15;;;;;;;12.93;83.98;97820.31;1726034;83;21068;-79
2021/09/16 05:33:02;;;;;;;13.53;10.28;;;;;;;13.02;83.90;97808.86;1703761;83;21427;-80
2021/09/16 05:35:29;;;;;;;19.40;11.00;;;;;;;13.12;83.68;97815.52;1709829;83;21501;-79
2021/09/16 05:37:58;;;;;;;13.58;10.55;;;;;;;13.19;83.30;97817.45;1720622;82;21008;-80
2021/09/16 05:40:23;;;;;;;21.68;11.97;;;;;;;13.29;83.53;97818.78;1697592;84;21043;-80
2021/09/16 05:42:50;;;;;;;17.77;10.85;;;;;;;13.39;83.48;97812.60;1697759;84;21044;-80
2021/09/16 05:45:17;;;;;;;17.80;10.98;;;;;;;13.46;83.26;97812.72;1697356;84;21020;-80
2021/09/16 05:47:43;;;;;;;18.92;12.07;;;;;;;13.52;83.03;97812.08;1715879;83;20992;-80
2021/09/16 05:50:10;;;;;;;22.25;13.53;;;;;;;13.55;82.80;97807.95;1719302;83;21048;-80
2021/09/16 05:52:37;;;;;;;16.12;13.13;;;;;;;13.59;82.51;97806.89;1701928;83;21004;-80
2021/09/16 05:55:05;;;;;;;18.55;13.68;;;;;;;13.63;82.46;97807.61;1705948;83;21023;-80
2021/09/16 05:57:32;;;;;;;19.00;14.47;;;;;;;13.67;82.26;97810.53;1726488;83;21357;-79
2021/09/16 05:59:58;;;;;;;20.10;14.28;;;;;;;13.69;82.23;97812.20;1697567;84;21031;-80
2021/09/16 06:02:25;;;;;;;18.35;13.62;;;;;;;13.72;82.50;97819.18;1700746;83;21423;-80
2021/09/16 06:04:51;;;;;;;19.37;14.53;;;;;;;13.77;82.15;97816.30;1717299;83;20991;-80
2021/09/16 06:07:18;;;;;;;22.60;15.25;;;;;;;13.82;81.97;97811.62;1723218;83;21028;-80
2021/09/16 06:09:44;;;;;;;24.47;16.30;;;;;;;13.85;81.94;97809.70;1713154;83;21323;-80
2021/09/16 06:12:10;;;;;;;21.55;15.48;;;;;;;13.92;82.04;97801.42;1744620;82;21024;-80
2021/09/16 06:14:37;;;;;;;21.23;16.50;;;;;;;13.97;82.51;97802.06;1697963;83;21420;-80
2021/09/16 06:17:04;;;;;;;22.85;17.12;;;;;;;14.01;82.24;97804.11;1698927;84;21080;-80
2021/09/16 06:19:31;;;;;;;24.12;15.83;;;;;;;14.06;82.45;97802.97;1684792;84;21466;-79
2021/09/16 06:21:57;;;;;;;21.73;14.50;;;;;;;14.12;81.99;97804.50;1741962;82;21064;-78
2021/09/16 06:24:24;;;;;;;16.85;13.50;;;;;;;14.19;81.92;97805.05;1694801;85;21045;-79
2021/09/16 06:26:50;;;;;;;23.00;15.23;;;;;;;14.24;81.46;97800.35;1713276;84;21494;-79
2021/09/16 06:29:17;;;;;;;21.75;15.30;;;;;;;14.33;81.20;97800.41;1694995;83;21004;-79
2021/09/16 06:31:43;;;;;;;25.40;16.20;;;;;;;14.39;81.17;97807.64;1713257;84;21033;-78
2021/09/16 06:34:10;;;;;;;23.20;16.45;;;;;;;14.47;81.09;97802.39;1713151;84;21016;-78
2021/09/16 06:36:36;;;;;;;23.80;17.20;;;;;;;14.55;80.94;97809.56;1713282;83;21076;-78
2021/09/16 06:39:04;;;;;;;23.05;16.37;;;;;;;14.62;80.82;97809.64;1719755;81;20997;-79
2021/09/16 06:41:30;;;;;;;21.52;17.05;;;;;;;14.70;80.76;97810.59;1730557;81;21045;-79
2021/09/16 06:43:57;;;;;;;25.32;18.12;;;;;;;14.78;80.66;97819.12;1738178;82;20954;-79
2021/09/16 06:46:23;;;;;;;26.35;19.57;;;;;;;14.85;80.49;97819.68;1713361;83;21042;-79
2021/09/16 06:48:50;;;;;;;28.98;19.45;;;;;;;14.95;80.29;97818.73;1688439;85;20982;-79
2021/09/16 06:51:16;;;;;;;27.80;19.90;;;;;;;15.03;80.04;97815.22;1713184;83;21422;-79
2021/09/16 06:53:43;;;;;;;28.85;18.62;;;;;;;15.12;80.01;97812.54;1703643;84;20961;-78
2021/09/16 06:56:10;;;;;;;25.92;18.80;;;;;;;15.22;79.92;97814.73;1736644;82;20986;-79
2021/09/16 06:58:36;;;;;;;26.00;17.57;;;;;;;15.30;79.63;97812.55;1722494;83;20960;-79
2021/09/16 07:01:02;;;;;;;25.30;16.55;;;;;;;15.38;79.54;97814.36;1724999;82;21104;-79
2021/09/16 07:03:29;;;;;;;23.42;16.75;;;;;;;15.49;79.37;97811.59;1728758;82;20969;-79
2021/09/16 07:05:56;;;;;;;26.55;16.60;;;;;;;15.57;79.17;97814.70;1728331;82;21026;-79
2021/09/16 07:08:22;;;;;;;24.12;15.93;;;;;;;15.66;78.74;97812.87;1718995;82;21020;-80
2021/09/16 07:10:49;;;;;;;24.50;15.88;;;;;;;15.75;78.52;97806.66;1727293;82;21026;-81
2021/09/16 07:13:15;;;;;;;26.50;16.40;;;;;;;15.83;78.44;97809.79;1713198;83;21042;-80
2021/09/16 07:15:42;;;;;;;25.60;16.32;;;;;;;15.92;78.21;97815.09;1713138;83;20975;-80
2021/09/16 07:18:08;;;;;;;26.33;15.88;;;;;;;16.00;78.20;97814.25;1716986;82;21052;-81
2021/09/16 07:20:35;;;;;;;32.70;16.67;;;;;;;16.07;78.11;97810.27;1743360;82;21097;-79
2021/09/16 07:23:02;;;;;;;26.40;17.62;;;;;;;16.18;78.04;97811.48;1724620;81;20955;-78
2021/09/16 07:25:29;;;;;;;26.57;16.57;;;;;;;16.27;77.72;97801.62;1698073;82;21035;-77
2021/09/16 07:27:55;;;;;;;25.25;17.35;;;;;;;16.36;77.61;97804.27;1720776;83;20957;-78
2021/09/16 07:30:22;;;;;;;25.27;16.23;;;;;;;16.45;77.47;97802.88;1689482;85;21051;-79
2021/09/16 07:32:48;;;;;;;20.43;15.88;;;;;;;16.54;77.23;97806.84;1719643;83;21054;-78
2021/09/16 07:35:15;;;;;;;22.27;15.40;;;;;;;16.65;77.11;97805.73;1747627;82;20961;-78
2021/09/16 07:37:41;;;;;;;21.07;14.18;;;;;;;16.74;76.73;97803.03;1722766;83;21068;-77
2021/09/16 07:40:10;;;;;;;25.52;16.48;;;;;;;16.85;76.60;97803.25;1690049;83;21032;-77
2021/09/16 07:42:36;;;;;;;23.62;15.18;;;;;;;16.94;76.33;97804.52;1694042;85;21535;-78
2021/09/16 07:45:05;;;;;;;27.60;16.25;;;;;;;17.02;76.09;97794.69;1726259;82;20937;-78
2021/09/16 07:47:32;;;;;;;24.02;15.63;;;;;;;17.12;75.71;97801.75;1723060;83;20992;-77
2021/09/16 07:50:00;;;;;;;26.20;16.48;;;;;;;17.21;75.57;97793.63;1715856;82;20964;-77
2021/09/16 07:52:27;;;;;;;23.50;16.12;;;;;;;17.30;75.01;97794.92;1722302;83;21047;-77
2021/09/16 07:54:54;;;;;;;19.98;14.98;;;;;;;17.37;74.50;97786.41;1713613;83;21115;-77
2021/09/16 07:57:20;;;;;;;20.00;15.00;;;;;;;17.46;74.50;97793.48;1746058;82;21012;-78
2021/09/16 07:59:47;;;;;;;22.17;14.80;;;;;;;17.54;74.26;97784.50;1694032;85;21063;-80
2021/09/16 08:02:14;;;;;;;21.30;14.93;;;;;;;17.61;74.11;97789.86;1691247;82;21077;-78
2021/09/16 08:04:40;;;;;;;19.25;16.20;;;;;;;17.70;73.65;97788.91;1705322;83;20999;-77
2021/09/16 08:07:07;;;;;;;19.87;14.87;;;;;;;17.78;73.42;97786.12;1719153;83;21055;-79
2021/09/16 08:09:33;;;;;;;22.15;13.83;;;;;;;17.86;73.05;97788.82;1736310;82;20977;-78
2021/09/16 08:12:00;;;;;;;21.97;14.43;;;;;;;17.95;73.36;97788.24;1748624;82;21386;-78
2021/09/16 08:14:26;;;;;;;17.90;14.20;;;;;;;18.04;72.78;97785.45;1722655;82;20980;-77
2021/09/16 08:16:53;;;;;;;18.80;13.75;;;;;;;18.13;73.20;97778.66;1702582;83;20996;-77
2021/09/16 08:19:20;;;;;;;18.82;14.68;;;;;;;18.24;73.00;97780.19;1691142;83;21397;-78
2021/09/16 08:21:48;;;;;;;21.90;15.75;;;;;;;18.36;72.90;97774.98;1738774;82;21449;-77
2021/09/16 08:24:15;;;;;;;22.10;14.85;;;;;;;18.51;72.91;97771.78;1730747;82;21015;-79
2021/09/16 08:26:41;;;;;;;21.90;14.43;;;;;;;18.62;72.55;97765.69;1725801;82;21470;-79
2021/09/16 08:29:12;;;;;;;17.73;13.98;;;;;;;18.74;72.91;97771.59;1700170;83;21017;-79
2021/09/16 08:31:45;;;;;;;27.50;15.15;;;;;;;18.89;73.29;97764.81;1721803;82;20992;-78
2021/09/16 08:34:12;;;;;;;21.75;15.35;;;;;;;19.00;73.10;97764.47;1702402;83;21491;-77
2021/09/16 08:36:38;;;;;;;19.37;14.78;;;;;;;19.16;72.93;97766.61;1704818;83;22119;-78
2021/09/16 08:39:06;;;;;;;22.13;15.58;;;;;;;19.29;72.75;97758.09;1686713;83;21475;-77
2021/09/16 08:41:33;;;;;;;20.55;15.93;;;;;;;19.42;72.11;97758.59;1711900;83;20972;-79
2021/09/16 08:44:03;;;;;;;22.65;14.93;;;;;;;19.57;72.05;97756.63;1709015;83;20999;-77
2021/09/16 08:46:30;;;;;;;21.77;15.55;;;;;;;19.70;72.28;97749.43;1708163;83;20995;-79
2021/09/16 08:48:57;;;;;;;20.43;14.50;;;;;;;19.82;72.11;97737.41;1710277;83;21051;-78
2021/09/16 08:51:24;;;;;;;19.15;14.53;;;;;;;19.92;71.07;97742.02;1698493;82;21019;-78
2021/09/16 08:53:53;;;;;;;21.23;14.43;;;;;;;20.02;70.75;97736.02;1696196;83;21435;-79
2021/09/16 08:56:19;;;;;;;21.12;14.45;;;;;;;20.10;70.88;97737.64;1708560;83;21056;-78
2021/09/16 08:58:47;;;;;;;17.50;13.05;;;;;;;20.18;70.58;97736.60;1704138;83;20988;-78
2021/09/16 09:01:18;;;;;;;22.17;15.58;;;;;;;20.27;69.95;97739.59;1696439;84;21051;-78
2021/09/16 09:03:46;;;;;;;20.72;16.77;;;;;;;20.38;69.76;97744.19;1719236;83;20964;-79
2021/09/16 09:06:34;;;;;;;20.80;16.17;;;;;;;20.48;69.54;97737.15;1709972;83;21381;-78
2021/09/16 09:09:21;;;;;;;21.62;15.40;;;;;;;20.59;69.53;97732.28;1707173;83;21024;-79
2021/09/16 09:12:11;;;;;;;20.27;14.60;;;;;;;20.72;69.43;97729.55;1708658;83;20992;-77
2021/09/16 09:14:46;;;;;;;22.37;14.50;;;;;;;20.83;68.94;97722.85;1721959;81;21455;-78
2021/09/16 09:17:23;;;;;;;18.23;13.85;;;;;;;20.92;67.61;97726.70;1696782;83;20991;-78
2021/09/16 09:19:54;;;;;;;18.60;12.85;;;;;;;21.05;67.36;97723.08;1706484;82;21326;-79
2021/09/16 09:22:31;;;;;;;20.40;14.47;;;;;;;21.18;67.79;97723.81;1696987;83;21405;-78
2021/09/16 09:25:13;;;;;;;16.12;13.25;;;;;;;21.30;66.94;97717.13;1697472;83;21031;-79
2021/09/16 09:27:52;;;;;;;14.53;12.53;;;;;;;21.39;67.00;97714.18;1686263;84;20967;-79
2021/09/16 09:30:30;;;;;;;16.70;12.45;;;;;;;21.53;67.12;97707.69;1703696;83;20999;-78
2021/09/16 09:33:05;;;;;;;19.90;12.37;;;;;;;21.65;66.89;97702.68;1711680;83;21019;-79
2021/09/16 09:35:34;;;;;;;14.20;12.05;;;;;;;;;;1713643;83;20971;-79
2021/09/16 09:38:15;;;;;;;18.30;12.37;;;;;;;21.94;65.82;97700.85;1704408;81;21024;-76
2021/09/16 09:40:44;;;;;;;17.98;12.18;;;;;;;22.09;65.48;97705.47;1703947;82;21051;-76
2021/09/16 09:43:37;;;;;;;18.27;12.13;;;;;;;22.26;64.87;97700.03;1686608;82;20968;-77
2021/09/16 09:46:13;;;;;;;15.58;11.25;;;;;;;22.40;64.13;97704.78;1697022;83;20983;-78
2021/09/16 09:49:03;;;;;;;16.10;11.63;;;;;;;22.55;63.24;97698.13;1696768;84;21024;-78
2021/09/16 09:51:44;;;;;;;13.62;11.15;;;;;;;22.81;63.46;97691.52;1704656;83;21020;-79
2021/09/16 09:54:32;;;;;;;17.73;12.40;;;;;;;22.81;63.46;97691.52;1722138;83;21028;-78
2021/09/16 09:57:13;;;;;;;14.40;10.70;;;;;;;22.99;61.36;97694.48;1705787;83;21051;-80
2021/09/16 10:00:12;;;;;;;16.67;10.35;;;;;;;23.24;60.74;97697.77;1719519;83;21405;-78
2021/09/16 10:02:52;;;;;;;16.65;11.03;;;;;;;23.24;60.74;97697.77;1723863;82;21564;-74
2021/09/16 10:05:38;;;;;;;19.17;10.58;;;;;;;23.42;60.74;97690.44;1725872;83;21028;-75
2021/09/16 10:08:13;;;;;;;13.18;9.70;;;;;;;23.56;58.77;97691.92;1725945;83;21131;-76
2021/09/16 10:10:47;;;;;;;14.33;9.95;;;;;;;23.73;58.07;97678.25;1714361;83;20987;-74
2021/09/16 10:13:20;;;;;;;10.40;9.08;;;;;;;23.90;57.58;97674.52;1724227;83;21062;-76
2021/09/16 10:15:52;;;;;;;12.03;9.70;;;;;;;24.07;58.03;97672.50;1725877;83;21406;-77
2021/09/16 10:18:21;;;;;;;13.03;9.43;;;;;;;24.26;58.14;97669.52;1725669;83;21043;-75
2021/09/16 10:20:48;;;;;;;13.83;9.28;;;;;;;24.42;58.11;97659.97;1711127;83;20988;-77
2021/09/16 10:23:16;;;;;;;12.00;8.80;;;;;;;24.57;57.20;97663.95;1692595;83;21008;-77
2021/09/16 10:25:46;;;;;;;12.68;8.75;;;;;;;24.73;56.79;97663.88;1717528;83;20961;-75
2021/09/16 10:28:14;;;;;;;13.35;9.60;;;;;;;24.92;56.93;97658.98;1720222;83;21004;-76
2021/09/16 10:30:45;;;;;;;16.10;10.30;;;;;;;25.08;54.36;97657.00;1719461;83;20992;-74
2021/09/16 10:33:17;;;;;;;11.50;8.38;;;;;;;25.29;55.66;97654.61;1719720;83;20993;-76
2021/09/16 10:35:49;;;;;;;9.28;8.18;;;;;;;25.75;55.04;97653.87;1720678;83;21067;-75
2021/09/16 10:38:45;;;;;;;11.40;8.50;;;;;;;26.82;53.99;97645.14;1720552;83;21063;-76
2021/09/16 10:41:28;;;;;;;11.70;8.45;;;;;;;27.95;51.05;97642.08;1697945;83;20952;-75
2021/09/16 10:44:06;;;;;;;11.30;9.38;;;;;;;29.24;49.71;97638.11;1692406;83;21040;-77
2021/09/16 10:46:48;;;;;;;8.43;7.62;;;;;;;30.24;45.93;97629.55;1702078;83;20972;-76
2021/09/16 10:49:29;;;;;;;13.60;7.92;;;;;;;31.12;44.56;97629.20;1696129;83;21472;-74
2021/09/16 10:52:03;;;;;;;9.45;8.08;;;;;;;32.06;42.46;97628.33;1692569;83;21004;-75
2021/09/16 10:54:50;;;;;;;8.75;7.50;;;;;;;32.85;42.41;97623.53;1720521;83;21445;-76
2021/09/16 10:57:40;;;;;;;10.20;8.40;;;;;;;33.46;38.59;97613.86;1718320;83;21012;-76
2021/09/16 11:00:16;;;;;;;10.58;7.78;;;;;;;34.11;38.53;97615.45;1695516;83;21792;-76
2021/09/16 11:02:48;;;;;;;10.50;7.10;;;;;;;34.63;36.63;97613.03;1700539;83;20995;-77
2021/09/16 11:05:21;;;;;;;7.37;5.47;;;;;;;34.87;34.74;97609.34;1704775;83;21087;-77
2021/09/16 11:07:52;;;;;;;5.37;4.95;;;;;;;35.22;32.18;97608.30;1704410;83;21423;-77
2021/09/16 11:10:27;;;;;;;7.72;5.30;;;;;;;35.64;27.12;97608.52;1701217;83;21079;-76
2021/09/16 11:13:04;;;;;;;6.90;6.30;;;;;;;36.14;29.57;97605.68;1701987;83;20977;-77
2021/09/16 11:15:34;;;;;;;6.20;5.70;;;;;;;36.13;26.01;97604.86;1716600;83;21021;-76
2021/09/16 11:18:14;;;;;;;7.55;6.28;;;;;;;36.32;29.25;97609.10;1700885;83;21036;-76
2021/09/16 11:20:45;;;;;;;6.97;6.22;;;;;;;36.35;28.68;97610.57;1713858;83;20985;-75
2021/09/16 11:23:21;;;;;;;8.18;6.10;;;;;;;36.54;27.90;97605.97;1708370;82;21012;-80
2021/09/16 11:25:49;;;;;;;6.42;5.65;;;;;;;36.83;27.66;97610.00;1696786;83;21007;-79
2021/09/16 11:28:17;;;;;;;9.23;6.00;;;;;;;36.96;26.55;97609.07;1697163;84;20996;-76
2021/09/16 11:30:46;;;;;;;8.03;6.75;;;;;;;36.95;26.40;97600.45;1710627;83;21013;-76
2021/09/16 11:33:17;;;;;;;7.97;7.17;;;;;;;37.34;25.57;97590.66;1706911;82;21041;-75
2021/09/16 11:35:45;;;;;;;9.28;6.95;;;;;;;37.61;26.84;97590.94;1737646;82;21049;-75
2021/09/16 11:38:13;;;;;;;7.25;6.15;;;;;;;37.90;25.57;97587.06;1705668;83;21005;-75
2021/09/16 11:40:47;;;;;;;12.75;6.60;;;;;;;38.19;25.80;97583.16;1701701;83;21024;-75
2021/09/16 11:43:17;;;;;;;8.10;6.20;;;;;;;38.53;25.59;97582.67;1704352;83;21056;-75
2021/09/16 11:45:49;;;;;;;9.23;6.28;;;;;;;38.77;24.70;97585.52;1719526;83;20988;-76
2021/09/16 11:48:20;;;;;;;11.83;7.10;;;;;;;38.90;23.92;97582.50;1719907;83;21062;-76
2021/09/16 11:50:53;;;;;;;7.42;6.50;;;;;;;38.59;23.74;97571.23;1716269;82;21012;-76
2021/09/16 11:53:24;;;;;;;9.85;6.00;;;;;;;38.95;24.21;97564.61;1705851;83;20993;-77
2021/09/16 11:55:58;;;;;;;6.72;5.80;;;;;;;38.75;22.80;97560.83;1717779;83;21088;-76
2021/09/16 11:58:32;;;;;;;9.38;6.55;;;;;;;38.21;22.57;97561.66;1713275;83;20969;-76
2021/09/16 12:01:04;;;;;;;8.15;6.40;;;;;;;37.32;23.13;97562.41;1709461;83;21048;-77
2021/09/16 12:03:38;;;;;;;7.08;6.03;;;;;;;36.40;25.10;97568.81;1716894;83;20995;-74
2021/09/16 12:06:15;;;;;;;5.72;5.22;;;;;;;35.75;25.85;97566.52;1711706;83;21043;-74
2021/09/16 12:08:49;;;;;;;6.58;5.97;;;;;;;35.00;26.08;97561.68;1705552;83;21085;-74
2021/09/16 12:11:23;;;;;;;7.62;6.05;;;;;;;34.53;26.97;97560.85;1696066;84;21012;-73
2021/09/16 12:13:59;;;;;;;7.25;6.05;;;;;;;33.93;27.75;97555.53;1718944;81;21033;-76
2021/09/16 12:16:37;;;;;;;8.50;5.87;;;;;;;33.69;28.25;97552.27;1707911;84;20980;-74
2021/09/16 12:19:13;;;;;;;9.33;6.67;;;;;;;33.05;29.06;97550.45;1688275;85;21047;-73
2021/09/16 12:21:47;;;;;;;6.58;5.90;;;;;;;32.49;30.19;97538.92;1697648;83;21003;-73
2021/09/16 12:24:20;;;;;;;9.28;6.22;;;;;;;32.04;30.85;97541.31;1704129;81;21037;-74
2021/09/16 12:26:51;;;;;;;6.57;5.97;;;;;;;31.77;31.37;97537.41;1708268;83;20972;-73